createdAt,value
2019-06-19T00:01:38.192Z,15.10
2019-06-19T00:04:06.665Z,15.00
2019-06-19T00:06:35.375Z,14.90
2019-06-19T00:09:05.570Z,14.90
2019-06-19T00:11:34.204Z,14.90
2019-06-19T00:14:02.902Z,14.90
2019-06-19T00:16:33.530Z,14.90
2019-06-19T00:19:02.710Z,14.90
2019-06-19T00:21:33.215Z,14.90
2019-06-19T00:24:02.604Z,14.90
2019-06-19T00:26:32.821Z,14.80
2019-06-19T00:29:02.658Z,14.80
2019-06-19T00:31:31.610Z,14.80
2019-06-19T00:34:01.753Z,14.80
2019-06-19T00:36:31.511Z,14.80
2019-06-19T00:39:01.325Z,14.80
2019-06-19T00:41:30.822Z,14.80
2019-06-19T00:44:01.332Z,14.70
2019-06-19T00:46:30.634Z,14.80
2019-06-19T00:49:01.045Z,14.80
2019-06-19T00:51:31.193Z,14.80
2019-06-19T00:54:01.816Z,14.80
2019-06-19T00:56:32.652Z,14.80
2019-06-19T00:59:01.792Z,14.80
2019-06-19T01:01:38.058Z,14.80
2019-06-19T01:04:06.649Z,14.90
2019-06-19T01:06:35.684Z,14.90
2019-06-19T01:09:05.285Z,14.90
2019-06-19T01:11:33.795Z,14.90
2019-06-19T01:14:02.484Z,14.90
2019-06-19T01:16:31.740Z,15.00
2019-06-19T01:19:00.763Z,15.00
2019-06-19T01:21:31.712Z,15.10
2019-06-19T01:24:02.034Z,15.10
2019-06-19T01:26:31.387Z,15.10
2019-06-19T01:29:02.042Z,15.20
2019-06-19T01:31:30.949Z,15.20
2019-06-19T01:34:01.068Z,15.30
2019-06-19T01:36:31.299Z,15.40
2019-06-19T01:39:00.708Z,15.40
2019-06-19T01:41:31.744Z,15.40
2019-06-19T01:44:01.373Z,15.40
2019-06-19T01:46:31.994Z,15.40
2019-06-19T01:49:00.990Z,15.50
2019-06-19T01:51:31.187Z,15.50
2019-06-19T01:54:22.179Z,15.50
2019-06-19T01:56:52.359Z,15.50
2019-06-19T01:59:22.578Z,15.50
2019-06-19T02:01:52.377Z,15.60
2019-06-19T02:04:21.627Z,15.50
2019-06-19T02:06:52.223Z,15.60
2019-06-19T02:09:21.977Z,15.50
2019-06-19T02:11:51.802Z,15.50
2019-06-19T02:14:21.269Z,15.50
2019-06-19T02:16:52.249Z,15.50
2019-06-19T02:19:23.692Z,15.50
2019-06-19T02:21:50.979Z,15.50
2019-06-19T02:24:20.710Z,15.50
2019-06-19T02:26:50.921Z,15.50
2019-06-19T02:29:21.051Z,15.50
2019-06-19T02:31:53.763Z,15.60
2019-06-19T02:34:22.678Z,15.50
2019-06-19T02:36:52.177Z,15.60
2019-06-19T02:39:21.847Z,15.50
2019-06-19T02:41:51.078Z,15.40
2019-06-19T02:44:19.697Z,15.40
2019-06-19T02:46:49.074Z,15.40
2019-06-19T02:49:17.682Z,15.30
2019-06-19T02:51:46.673Z,15.40
2019-06-19T02:54:15.290Z,15.30
2019-06-19T02:56:43.870Z,15.30
2019-06-19T02:59:12.561Z,15.30
2019-06-19T03:01:41.121Z,15.30
2019-06-19T03:04:09.747Z,15.30
2019-06-19T03:06:38.317Z,15.30
2019-06-19T03:09:08.147Z,15.30
2019-06-19T03:11:36.691Z,15.40
2019-06-19T03:14:05.347Z,15.40
2019-06-19T03:16:33.886Z,15.40
2019-06-19T03:19:02.459Z,15.50
2019-06-19T03:21:31.004Z,15.50
2019-06-19T03:23:59.527Z,15.50
2019-06-19T03:26:28.080Z,15.60
2019-06-19T03:28:56.643Z,15.60
2019-06-19T03:31:34.843Z,15.60
2019-06-19T03:33:55.446Z,15.60
2019-06-19T03:36:23.987Z,15.60
2019-06-19T03:38:52.634Z,15.70
2019-06-19T03:41:21.364Z,15.70
2019-06-19T03:43:50.259Z,15.80
2019-06-19T03:46:18.910Z,15.80
2019-06-19T03:48:47.455Z,15.80
2019-06-19T03:51:16.039Z,15.80
2019-06-19T03:53:44.596Z,15.80
2019-06-19T03:56:13.168Z,15.90
2019-06-19T03:58:42.182Z,15.90
2019-06-19T04:01:10.992Z,15.90
2019-06-19T04:03:39.502Z,15.90
2019-06-19T04:06:08.074Z,15.90
2019-06-19T04:08:36.681Z,15.90
2019-06-19T04:11:05.316Z,16.00
2019-06-19T04:13:33.869Z,16.00
2019-06-19T04:16:03.297Z,16.10
2019-06-19T04:18:31.853Z,16.10
2019-06-19T04:21:00.505Z,16.10
2019-06-19T04:23:29.066Z,16.20
2019-06-19T04:25:57.558Z,16.20
2019-06-19T04:28:27.832Z,16.30
2019-06-19T04:30:56.875Z,16.40
2019-06-19T04:33:26.280Z,16.30
2019-06-19T04:35:55.414Z,16.40
2019-06-19T04:38:25.969Z,16.40
2019-06-19T04:40:54.188Z,16.40
2019-06-19T04:43:22.723Z,16.50
2019-06-19T04:45:51.563Z,16.60
2019-06-19T04:48:20.136Z,16.70
2019-06-19T04:50:48.836Z,16.70
2019-06-19T04:53:17.467Z,16.80
2019-06-19T04:55:46.069Z,16.90
2019-06-19T04:58:14.804Z,17.00
2019-06-19T05:00:44.098Z,17.10
2019-06-19T05:03:12.791Z,17.30
2019-06-19T05:05:41.460Z,17.40
2019-06-19T05:08:13.139Z,17.50
2019-06-19T05:10:42.073Z,17.60
2019-06-19T05:13:10.713Z,17.70
2019-06-19T05:15:39.326Z,17.80
2019-06-19T05:18:07.904Z,17.90
2019-06-19T05:20:36.503Z,17.90
2019-06-19T05:23:05.076Z,18.00
2019-06-19T05:25:33.674Z,18.20
2019-06-19T05:28:02.297Z,18.50
2019-06-19T05:30:30.894Z,18.70
2019-06-19T05:32:59.465Z,18.90
2019-06-19T05:35:28.193Z,19.30
2019-06-19T05:37:56.804Z,19.60
2019-06-19T05:40:25.332Z,19.80
2019-06-19T05:42:53.947Z,20.10
2019-06-19T05:45:22.738Z,20.40
2019-06-19T05:47:51.407Z,20.50
2019-06-19T05:50:20.099Z,20.70
2019-06-19T05:52:48.739Z,20.70
2019-06-19T05:55:17.287Z,20.70
2019-06-19T05:57:45.930Z,20.50
2019-06-19T06:00:16.868Z,20.60
2019-06-19T06:02:51.954Z,21.10
2019-06-19T06:05:15.873Z,21.80
2019-06-19T06:07:44.439Z,23.20
2019-06-19T06:10:13.142Z,24.70
2019-06-19T06:12:41.708Z,26.30
2019-06-19T06:15:10.416Z,27.00
2019-06-19T06:17:38.962Z,26.60
2019-06-19T06:20:13.025Z,26.80
2019-06-19T06:22:41.567Z,27.60
2019-06-19T06:25:10.381Z,29.40
2019-06-19T06:27:38.925Z,30.10
2019-06-19T06:30:07.782Z,30.80
2019-06-19T06:32:36.949Z,30.10
2019-06-19T06:35:05.885Z,29.00
2019-06-19T06:37:34.474Z,27.90
2019-06-19T06:40:04.003Z,26.70
2019-06-19T06:42:32.646Z,26.00
2019-06-19T06:45:02.343Z,25.90
2019-06-19T06:47:30.953Z,27.00
2019-06-19T06:49:59.740Z,28.30
2019-06-19T06:52:28.422Z,29.60
2019-06-19T06:54:58.452Z,30.70
2019-06-19T06:57:27.539Z,30.80
2019-06-19T06:59:56.323Z,31.00
2019-06-19T07:02:25.031Z,30.70
2019-06-19T07:04:53.701Z,31.10
2019-06-19T07:07:30.126Z,31.10
2019-06-19T07:10:15.280Z,31.00
2019-06-19T07:12:47.506Z,31.10
2019-06-19T07:15:16.913Z,31.20
2019-06-19T07:17:49.483Z,31.50
2019-06-19T07:20:24.328Z,31.90
2019-06-19T07:22:58.173Z,32.70
2019-06-19T07:25:27.842Z,33.60
2019-06-19T07:27:58.726Z,33.90
2019-06-19T07:30:27.619Z,34.40
2019-06-19T07:32:56.173Z,34.60
2019-06-19T07:35:24.760Z,34.30
2019-06-19T07:37:53.563Z,33.60
2019-06-19T07:40:22.239Z,33.60
2019-06-19T07:42:50.817Z,33.60
2019-06-19T07:45:19.465Z,33.90
2019-06-19T07:47:48.108Z,33.40
2019-06-19T07:50:17.053Z,32.50
2019-06-19T07:52:45.994Z,32.60
2019-06-19T07:55:14.816Z,33.20
2019-06-19T07:57:44.173Z,33.50
2019-06-19T08:00:14.371Z,33.90
2019-06-19T08:02:42.927Z,34.80
2019-06-19T08:05:12.541Z,34.80
2019-06-19T08:07:41.405Z,34.30
2019-06-19T08:10:10.500Z,34.40
2019-06-19T08:12:39.069Z,35.00
2019-06-19T08:15:10.771Z,35.50
2019-06-19T08:17:39.485Z,35.10
2019-06-19T08:20:08.486Z,34.60
2019-06-19T08:22:37.018Z,34.10
2019-06-19T08:25:05.739Z,33.90
2019-06-19T08:27:39.289Z,33.70
2019-06-19T08:30:08.113Z,33.40
2019-06-19T08:32:36.797Z,33.20
2019-06-19T08:35:05.584Z,33.80
2019-06-19T08:37:34.240Z,34.50
2019-06-19T08:40:02.855Z,34.90
2019-06-19T08:42:31.473Z,35.20
2019-06-19T08:45:00.189Z,34.70
2019-06-19T08:47:28.889Z,34.80
2019-06-19T08:49:57.601Z,35.40
2019-06-19T08:52:26.231Z,35.10
2019-06-19T08:54:54.869Z,35.00
2019-06-19T08:57:23.449Z,35.20
2019-06-19T08:59:52.184Z,35.30
2019-06-19T09:02:20.833Z,35.20
2019-06-19T09:04:49.455Z,35.10
2019-06-19T09:07:18.092Z,34.60
2019-06-19T09:09:48.443Z,34.30
2019-06-19T09:12:17.091Z,34.50
2019-06-19T09:14:45.735Z,34.00
2019-06-19T09:17:14.469Z,33.80
2019-06-19T09:19:43.206Z,33.80
2019-06-19T09:22:11.759Z,34.20
2019-06-19T09:24:40.407Z,34.50
2019-06-19T09:27:09.072Z,34.20
2019-06-19T09:29:37.696Z,33.30
2019-06-19T09:32:06.383Z,32.80
2019-06-19T09:34:49.680Z,32.70
2019-06-19T09:37:05.172Z,32.80
2019-06-19T09:39:42.146Z,33.20
2019-06-19T09:42:10.828Z,33.20
2019-06-19T09:44:39.422Z,33.00
2019-06-19T09:47:08.116Z,33.10
2019-06-19T09:49:36.793Z,33.20
2019-06-19T09:52:05.525Z,33.20
2019-06-19T09:54:34.262Z,33.00
2019-06-19T09:57:07.951Z,33.50
2019-06-19T09:59:44.037Z,33.30
2019-06-19T10:02:12.789Z,33.40
2019-06-19T10:04:41.513Z,34.00
2019-06-19T10:07:23.558Z,34.20
2019-06-19T10:09:51.876Z,34.50
2019-06-19T10:12:21.286Z,34.00
2019-06-19T10:14:50.328Z,34.20
2019-06-19T10:17:19.236Z,34.60
2019-06-19T10:19:48.043Z,34.70
2019-06-19T10:22:16.751Z,33.80
2019-06-19T10:24:50.782Z,33.20
2019-06-19T10:27:19.225Z,33.20
2019-06-19T10:29:47.821Z,33.40
2019-06-19T10:32:30.929Z,33.70
2019-06-19T10:34:46.733Z,33.90
2019-06-19T10:37:15.397Z,34.70
2019-06-19T10:39:44.115Z,34.80
2019-06-19T10:42:12.878Z,34.90
2019-06-19T10:44:41.603Z,35.00
2019-06-19T10:47:10.244Z,34.20
2019-06-19T10:49:38.910Z,33.60
2019-06-19T10:52:07.500Z,33.80
2019-06-19T10:54:36.174Z,34.10
2019-06-19T10:57:05.120Z,34.60
2019-06-19T10:59:33.736Z,35.10
2019-06-19T11:02:02.448Z,35.50
2019-06-19T11:04:31.013Z,35.50
2019-06-19T11:06:59.642Z,35.50
2019-06-19T11:09:28.213Z,35.50
2019-06-19T11:11:57.159Z,35.80
2019-06-19T11:14:25.903Z,36.20
2019-06-19T11:16:54.537Z,36.30
2019-06-19T11:19:23.204Z,36.80
2019-06-19T11:21:52.097Z,37.40
2019-06-19T11:24:20.801Z,36.80
2019-06-19T11:26:49.418Z,35.90
2019-06-19T11:29:18.069Z,35.40
2019-06-19T11:31:46.775Z,35.70
2019-06-19T11:34:15.429Z,36.80
2019-06-19T11:36:44.056Z,37.70
2019-06-19T11:39:12.670Z,37.90
2019-06-19T11:41:41.307Z,37.30
2019-06-19T11:44:10.057Z,37.90
2019-06-19T11:46:38.622Z,37.70
2019-06-19T11:49:07.346Z,37.40
2019-06-19T11:51:35.984Z,36.50
2019-06-19T11:54:04.826Z,36.30
2019-06-19T11:56:33.378Z,36.50
2019-06-19T11:59:02.081Z,35.50
2019-06-19T12:01:30.833Z,35.80
2019-06-19T12:03:59.398Z,36.70
2019-06-19T12:06:28.033Z,37.10
2019-06-19T12:08:56.683Z,36.90
2019-06-19T12:11:25.419Z,37.70
2019-06-19T12:13:54.139Z,37.50
2019-06-19T12:16:22.851Z,37.40
2019-06-19T12:18:51.430Z,37.40
2019-06-19T12:21:20.023Z,36.70
2019-06-19T12:23:48.643Z,36.40
2019-06-19T12:26:17.367Z,36.50
2019-06-19T12:28:46.154Z,36.40
2019-06-19T12:31:14.707Z,36.10
2019-06-19T12:33:43.432Z,37.00
2019-06-19T12:36:12.222Z,38.10
2019-06-19T12:38:40.837Z,38.40
2019-06-19T12:41:09.562Z,36.80
2019-06-19T12:43:38.613Z,36.10
2019-06-19T12:46:07.365Z,36.10
2019-06-19T12:48:35.959Z,36.20
2019-06-19T12:51:05.046Z,36.80
2019-06-19T12:53:33.870Z,36.70
2019-06-19T12:56:02.478Z,36.70
2019-06-19T12:58:31.107Z,37.00
2019-06-19T13:00:59.756Z,37.10
2019-06-19T13:03:28.488Z,36.80
2019-06-19T13:05:57.248Z,36.70
2019-06-19T13:08:25.840Z,36.30
2019-06-19T13:10:54.497Z,36.40
2019-06-19T13:13:23.021Z,36.80
2019-06-19T13:15:51.710Z,38.20
2019-06-19T13:18:20.309Z,39.10
2019-06-19T13:20:49.030Z,39.00
2019-06-19T13:23:17.692Z,39.20
2019-06-19T13:25:46.356Z,38.50
2019-06-19T13:28:15.052Z,38.50
2019-06-19T13:30:43.722Z,38.60
2019-06-19T13:33:12.406Z,39.00
2019-06-19T13:35:41.117Z,39.40
2019-06-19T13:38:09.658Z,40.30
2019-06-19T13:40:38.298Z,40.50
2019-06-19T13:43:06.845Z,40.20
2019-06-19T13:45:35.477Z,38.90
2019-06-19T13:48:06.275Z,38.20
2019-06-19T13:50:34.377Z,38.30
2019-06-19T13:53:02.867Z,38.30
2019-06-19T13:55:31.471Z,38.50
2019-06-19T13:58:00.027Z,38.40
2019-06-19T14:00:28.597Z,38.00
2019-06-19T14:02:57.244Z,37.00
2019-06-19T14:05:25.870Z,36.80
2019-06-19T14:07:54.462Z,36.30
2019-06-19T14:10:23.238Z,36.20
2019-06-19T14:12:51.808Z,35.70
2019-06-19T14:15:20.610Z,35.70
2019-06-19T14:17:49.253Z,35.90
2019-06-19T14:20:18.178Z,36.10
2019-06-19T14:22:46.881Z,36.70
2019-06-19T14:25:15.642Z,36.90
2019-06-19T14:27:44.200Z,37.40
2019-06-19T14:30:13.805Z,36.70
2019-06-19T14:32:42.296Z,36.20
2019-06-19T14:35:11.429Z,35.70
2019-06-19T14:37:39.982Z,35.70
2019-06-19T14:40:09.214Z,36.70
2019-06-19T14:42:37.887Z,37.70
2019-06-19T14:45:07.331Z,37.60
2019-06-19T14:47:36.027Z,37.30
2019-06-19T14:50:06.440Z,37.50
2019-06-19T14:52:35.089Z,38.10
2019-06-19T14:55:05.308Z,37.90
2019-06-19T14:57:33.833Z,37.40
2019-06-19T15:00:02.892Z,36.90
2019-06-19T15:02:31.837Z,36.30
2019-06-19T15:05:08.515Z,36.50
2019-06-19T15:07:53.644Z,37.20
2019-06-19T15:10:08.467Z,37.60
2019-06-19T15:12:37.140Z,37.80
2019-06-19T15:15:07.669Z,37.60
2019-06-19T15:17:36.439Z,37.60
2019-06-19T15:20:08.883Z,36.80
2019-06-19T15:22:37.693Z,36.40
2019-06-19T15:25:08.523Z,36.10
2019-06-19T15:27:37.246Z,35.80
2019-06-19T15:30:06.976Z,35.90
2019-06-19T15:32:36.428Z,36.00
2019-06-19T15:35:07.045Z,36.40
2019-06-19T15:37:35.724Z,37.70
2019-06-19T15:40:05.759Z,37.90
2019-06-19T15:42:34.437Z,37.40
2019-06-19T15:45:04.251Z,37.70
2019-06-19T15:47:32.995Z,37.60
2019-06-19T15:50:01.717Z,38.00
2019-06-19T15:52:30.279Z,37.90
2019-06-19T15:54:59.100Z,38.00
2019-06-19T15:57:27.709Z,38.10
2019-06-19T15:59:56.243Z,38.10
2019-06-19T16:02:24.854Z,37.50
2019-06-19T16:04:53.693Z,36.90
2019-06-19T16:07:22.345Z,36.70
2019-06-19T16:09:50.977Z,36.20
2019-06-19T16:12:19.652Z,36.10
2019-06-19T16:14:48.316Z,35.70
2019-06-19T16:17:17.040Z,35.40
2019-06-19T16:19:45.604Z,34.80
2019-06-19T16:22:14.453Z,34.40
2019-06-19T16:24:43.043Z,33.70
2019-06-19T16:27:11.603Z,33.20
2019-06-19T16:29:40.362Z,32.50
2019-06-19T16:32:11.440Z,31.70
2019-06-19T16:34:39.211Z,31.20
2019-06-19T16:37:08.574Z,30.90
2019-06-19T16:39:37.224Z,30.60
2019-06-19T16:42:06.013Z,30.30
2019-06-19T16:44:35.057Z,30.00
2019-06-19T16:47:03.704Z,29.70
2019-06-19T16:49:32.423Z,29.60
2019-06-19T16:52:02.107Z,29.40
2019-06-19T16:54:30.962Z,29.30
2019-06-19T16:56:59.536Z,29.20
2019-06-19T16:59:28.198Z,29.00
2019-06-19T17:01:56.908Z,28.90
2019-06-19T17:04:25.480Z,28.90
2019-06-19T17:06:54.506Z,28.90
2019-06-19T17:09:23.223Z,28.70
2019-06-19T17:11:51.904Z,28.60
2019-06-19T17:14:20.552Z,28.50
2019-06-19T17:16:49.476Z,28.40
2019-06-19T17:19:18.302Z,28.20
2019-06-19T17:21:51.298Z,28.20
2019-06-19T17:24:17.450Z,28.10
2019-06-19T17:26:46.251Z,28.00
2019-06-19T17:29:14.890Z,27.90
2019-06-19T17:31:43.718Z,27.80
2019-06-19T17:34:12.448Z,27.60
2019-06-19T17:36:41.196Z,27.50
2019-06-19T17:39:21.477Z,27.30
2019-06-19T17:41:40.107Z,27.20
2019-06-19T17:44:08.838Z,27.10
2019-06-19T17:46:37.434Z,27.10
2019-06-19T17:49:06.149Z,27.00
2019-06-19T17:51:34.829Z,26.90
2019-06-19T17:54:03.511Z,26.70
2019-06-19T17:56:32.182Z,26.60
2019-06-19T17:59:00.939Z,26.50
2019-06-19T18:01:29.660Z,26.30
2019-06-19T18:03:58.537Z,26.10
2019-06-19T18:06:27.228Z,25.90
2019-06-19T18:08:55.938Z,25.80
2019-06-19T18:11:24.545Z,25.60
2019-06-19T18:13:53.230Z,25.50
2019-06-19T18:16:35.865Z,25.40
2019-06-19T18:18:52.489Z,25.30
2019-06-19T18:21:21.167Z,25.10
2019-06-19T18:23:49.843Z,25.00
2019-06-19T18:26:18.491Z,24.90
2019-06-19T18:28:47.158Z,24.80
2019-06-19T18:31:15.798Z,24.70
2019-06-19T18:33:44.493Z,24.60
2019-06-19T18:36:13.331Z,24.50
2019-06-19T18:38:42.412Z,24.30
2019-06-19T18:41:10.955Z,24.10
2019-06-19T18:43:39.537Z,23.90
2019-06-19T18:46:08.417Z,23.70
2019-06-19T18:48:36.988Z,23.60
2019-06-19T18:51:05.599Z,23.50
2019-06-19T18:53:34.512Z,23.30
2019-06-19T18:56:03.518Z,23.10
2019-06-19T18:58:32.169Z,22.90
2019-06-19T19:01:00.898Z,22.80
2019-06-19T19:03:31.019Z,22.70
2019-06-19T19:05:59.935Z,22.50
2019-06-19T19:08:28.627Z,22.40
2019-06-19T19:10:57.237Z,22.30
2019-06-19T19:13:25.937Z,22.10
2019-06-19T19:15:54.622Z,22.00
2019-06-19T19:18:23.306Z,21.90
2019-06-19T19:20:51.845Z,21.70
2019-06-19T19:23:20.815Z,21.40
2019-06-19T19:25:49.426Z,21.20
2019-06-19T19:28:17.999Z,21.10
2019-06-19T19:30:46.663Z,20.90
2019-06-19T19:33:15.503Z,20.60
2019-06-19T19:35:44.073Z,20.40
2019-06-19T19:38:13.225Z,20.20
2019-06-19T19:40:41.816Z,20.00
2019-06-19T19:43:10.686Z,19.80
2019-06-19T19:45:39.325Z,19.60
2019-06-19T19:48:08.141Z,19.60
2019-06-19T19:50:36.823Z,19.60
2019-06-19T19:53:06.182Z,19.70
2019-06-19T19:55:35.146Z,19.70
2019-06-19T19:58:03.933Z,19.80
2019-06-19T20:00:39.210Z,19.60
2019-06-19T20:03:08.177Z,19.40
2019-06-19T20:05:36.815Z,19.20
2019-06-19T20:08:06.072Z,19.00
2019-06-19T20:10:45.957Z,18.80
2019-06-19T20:13:05.189Z,18.60
2019-06-19T20:15:34.010Z,18.50
2019-06-19T20:18:02.734Z,18.20
2019-06-19T20:20:31.281Z,18.10
2019-06-19T20:22:59.931Z,17.90
2019-06-19T20:25:28.522Z,17.80
2019-06-19T20:27:57.102Z,17.80
2019-06-19T20:30:25.835Z,18.00
2019-06-19T20:32:54.657Z,18.20
2019-06-19T20:35:23.353Z,18.30
2019-06-19T20:37:52.085Z,18.40
2019-06-19T20:40:21.007Z,18.50
2019-06-19T20:42:53.060Z,18.40
2019-06-19T20:45:20.364Z,18.40
2019-06-19T20:47:48.931Z,18.30
2019-06-19T20:50:17.647Z,18.20
2019-06-19T20:52:56.083Z,18.20
2019-06-19T20:55:16.674Z,18.10
2019-06-19T20:57:45.247Z,17.90
2019-06-19T21:00:16.743Z,17.60
2019-06-19T21:02:45.533Z,17.50
2019-06-19T21:05:15.425Z,17.30
2019-06-19T21:07:44.173Z,17.30
2019-06-19T21:10:15.461Z,17.50
2019-06-19T21:12:44.100Z,17.50
2019-06-19T21:15:12.960Z,17.60
2019-06-19T21:17:41.870Z,17.70
2019-06-19T21:20:10.817Z,17.80
2019-06-19T21:22:39.471Z,17.80
2019-06-19T21:25:08.402Z,17.60
2019-06-19T21:27:37.154Z,17.50
2019-06-19T21:30:09.172Z,17.50
2019-06-19T21:32:37.960Z,17.60
2019-06-19T21:35:09.622Z,17.80
2019-06-19T21:37:38.323Z,17.90
2019-06-19T21:40:10.254Z,18.00
2019-06-19T21:42:39.773Z,18.20
2019-06-19T21:45:09.369Z,18.30
2019-06-19T21:47:38.032Z,18.30
2019-06-19T21:50:07.529Z,18.10
2019-06-19T21:52:36.169Z,17.90
2019-06-19T21:55:08.919Z,17.70
2019-06-19T21:57:38.016Z,17.70
2019-06-19T22:00:16.491Z,17.70
2019-06-19T22:02:45.213Z,17.90
2019-06-19T22:05:14.223Z,18.00
2019-06-19T22:07:42.806Z,18.10
2019-06-19T22:10:12.632Z,18.20
2019-06-19T22:12:41.356Z,18.30
2019-06-19T22:15:12.003Z,18.30
2019-06-19T22:17:40.652Z,18.40
2019-06-19T22:20:09.659Z,18.40
2019-06-19T22:22:38.398Z,19.00
2019-06-19T22:25:07.170Z,20.00
2019-06-19T22:27:35.815Z,20.40
2019-06-19T22:30:07.503Z,20.50
2019-06-19T22:32:36.057Z,20.60
2019-06-19T22:35:06.351Z,20.60
2019-06-19T22:37:34.910Z,20.50
2019-06-19T22:40:05.504Z,20.20
2019-06-19T22:42:34.057Z,20.10
2019-06-19T22:45:02.655Z,19.80
2019-06-19T22:47:31.292Z,19.40
2019-06-19T22:49:59.860Z,19.00
2019-06-19T22:52:28.737Z,18.70
2019-06-19T22:54:57.389Z,18.40
2019-06-19T22:57:26.009Z,18.20
2019-06-19T22:59:54.586Z,18.10
2019-06-19T23:02:33.906Z,18.00
2019-06-19T23:05:03.593Z,18.00
2019-06-19T23:07:33.269Z,18.00
2019-06-19T23:10:01.882Z,17.80
2019-06-19T23:12:30.670Z,17.60
2019-06-19T23:14:59.268Z,17.50
2019-06-19T23:17:27.825Z,17.40
2019-06-19T23:19:56.566Z,17.30
2019-06-19T23:22:25.105Z,16.90
2019-06-19T23:24:53.683Z,16.60
2019-06-19T23:27:22.510Z,16.40
2019-06-19T23:29:51.088Z,16.20
2019-06-19T23:32:20.029Z,16.10
2019-06-19T23:34:48.792Z,16.10
2019-06-19T23:37:17.456Z,16.00
2019-06-19T23:39:46.091Z,15.90
2019-06-19T23:42:15.090Z,15.80
2019-06-19T23:44:43.675Z,15.60
2019-06-19T23:47:12.343Z,15.50
2019-06-19T23:49:40.969Z,15.30
2019-06-19T23:52:09.452Z,15.30
2019-06-19T23:54:38.026Z,15.30
2019-06-19T23:57:06.576Z,15.20
2019-06-19T23:59:35.863Z,15.20
